sensor_id;sensor_type;location;lat;lon;timestamp;P1;durP1;ratioP1;P2;durP2;ratioP2
77123;SDS011;66079;47.646;19.130;2023-06-22T00:00:30;7.18;;;4.38;;
77123;SDS011;66079;47.646;19.130;2023-06-22T00:03:33;9.47;;;4.50;;
77123;SDS011;66079;47.646;19.130;2023-06-22T00:06:35;10.57;;;4.70;;
77123;SDS011;66079;47.646;19.130;2023-06-22T00:09:38;8.30;;;4.45;;
77123;SDS011;66079;47.646;19.130;2023-06-22T00:12:40;8.63;;;4.90;;
77123;SDS011;66079;47.646;19.130;2023-06-22T00:15:43;7.38;;;4.53;;
77123;SDS011;66079;47.646;19.130;2023-06-22T00:18:45;11.23;;;4.60;;
77123;SDS011;66079;47.646;19.130;2023-06-22T00:21:52;8.97;;;5.10;;
77123;SDS011;66079;47.646;19.130;2023-06-22T00:24:55;9.23;;;5.20;;
77123;SDS011;66079;47.646;19.130;2023-06-22T00:27:58;9.00;;;4.93;;
77123;SDS011;66079;47.646;19.130;2023-06-22T00:31:02;7.32;;;4.45;;
77123;SDS011;66079;47.646;19.130;2023-06-22T00:34:04;7.67;;;3.90;;
77123;SDS011;66079;47.646;19.130;2023-06-22T00:37:08;7.77;;;4.50;;
77123;SDS011;66079;47.646;19.130;2023-06-22T00:40:12;9.35;;;4.95;;
77123;SDS011;66079;47.646;19.130;2023-06-22T00:43:16;9.98;;;4.63;;
77123;SDS011;66079;47.646;19.130;2023-06-22T00:46:19;9.68;;;4.45;;
77123;SDS011;66079;47.646;19.130;2023-06-22T00:49:21;8.90;;;4.70;;
77123;SDS011;66079;47.646;19.130;2023-06-22T00:52:24;8.50;;;4.20;;
77123;SDS011;66079;47.646;19.130;2023-06-22T00:55:31;12.30;;;4.47;;
77123;SDS011;66079;47.646;19.130;2023-06-22T00:58:33;11.27;;;5.07;;
77123;SDS011;66079;47.646;19.130;2023-06-22T01:01:38;12.30;;;5.20;;
77123;SDS011;66079;47.646;19.130;2023-06-22T01:04:43;13.50;;;5.27;;
77123;SDS011;66079;47.646;19.130;2023-06-22T01:11:09;9.02;;;4.53;;
77123;SDS011;66079;47.646;19.130;2023-06-22T01:14:28;8.52;;;4.82;;
77123;SDS011;66079;47.646;19.130;2023-06-22T01:17:33;10.75;;;5.00;;
77123;SDS011;66079;47.646;19.130;2023-06-22T01:20:37;9.13;;;5.33;;
77123;SDS011;66079;47.646;19.130;2023-06-22T01:23:56;9.13;;;5.20;;
77123;SDS011;66079;47.646;19.130;2023-06-22T01:27:08;9.55;;;5.07;;
77123;SDS011;66079;47.646;19.130;2023-06-22T01:30:12;7.38;;;4.60;;
77123;SDS011;66079;47.646;19.130;2023-06-22T01:33:17;7.35;;;5.10;;
77123;SDS011;66079;47.646;19.130;2023-06-22T01:36:21;10.30;;;5.10;;
77123;SDS011;66079;47.646;19.130;2023-06-22T01:39:25;9.27;;;5.70;;
77123;SDS011;66079;47.646;19.130;2023-06-22T01:42:28;10.07;;;5.35;;
77123;SDS011;66079;47.646;19.130;2023-06-22T01:45:31;10.02;;;5.65;;
77123;SDS011;66079;47.646;19.130;2023-06-22T01:48:33;9.43;;;5.30;;
77123;SDS011;66079;47.646;19.130;2023-06-22T01:51:36;10.37;;;5.70;;
77123;SDS011;66079;47.646;19.130;2023-06-22T01:54:39;11.47;;;5.50;;
77123;SDS011;66079;47.646;19.130;2023-06-22T01:57:42;9.50;;;5.43;;
77123;SDS011;66079;47.646;19.130;2023-06-22T02:00:47;11.45;;;5.72;;
77123;SDS011;66079;47.646;19.130;2023-06-22T02:04:02;8.52;;;5.57;;
77123;SDS011;66079;47.646;19.130;2023-06-22T02:07:10;11.67;;;5.70;;
77123;SDS011;66079;47.646;19.130;2023-06-22T02:10:19;9.57;;;5.47;;
77123;SDS011;66079;47.646;19.130;2023-06-22T02:13:25;8.65;;;5.07;;
77123;SDS011;66079;47.646;19.130;2023-06-22T02:16:30;8.68;;;5.63;;
77123;SDS011;66079;47.646;19.130;2023-06-22T02:19:37;8.15;;;5.63;;
77123;SDS011;66079;47.646;19.130;2023-06-22T02:22:41;12.10;;;5.33;;
77123;SDS011;66079;47.646;19.130;2023-06-22T02:25:45;11.17;;;5.97;;
77123;SDS011;66079;47.646;19.130;2023-06-22T02:28:48;10.07;;;5.63;;
77123;SDS011;66079;47.646;19.130;2023-06-22T02:31:52;10.48;;;5.70;;
77123;SDS011;66079;47.646;19.130;2023-06-22T02:34:54;7.78;;;5.50;;
77123;SDS011;66079;47.646;19.130;2023-06-22T02:37:59;7.93;;;5.33;;
77123;SDS011;66079;47.646;19.130;2023-06-22T02:41:03;11.20;;;5.90;;
77123;SDS011;66079;47.646;19.130;2023-06-22T02:44:05;11.10;;;5.65;;
77123;SDS011;66079;47.646;19.130;2023-06-22T02:47:08;11.70;;;5.70;;
77123;SDS011;66079;47.646;19.130;2023-06-22T02:50:10;10.80;;;5.93;;
77123;SDS011;66079;47.646;19.130;2023-06-22T02:53:13;9.80;;;5.30;;
77123;SDS011;66079;47.646;19.130;2023-06-22T02:56:20;13.60;;;6.27;;
77123;SDS011;66079;47.646;19.130;2023-06-22T02:59:30;14.73;;;5.85;;
77123;SDS011;66079;47.646;19.130;2023-06-22T03:02:41;11.23;;;5.70;;
77123;SDS011;66079;47.646;19.130;2023-06-22T03:05:44;15.80;;;6.72;;
77123;SDS011;66079;47.646;19.130;2023-06-22T03:08:46;10.10;;;6.03;;
77123;SDS011;66079;47.646;19.130;2023-06-22T03:11:49;11.00;;;5.83;;
77123;SDS011;66079;47.646;19.130;2023-06-22T03:14:52;13.98;;;5.90;;
77123;SDS011;66079;47.646;19.130;2023-06-22T03:17:54;14.68;;;5.68;;
77123;SDS011;66079;47.646;19.130;2023-06-22T03:20:58;9.57;;;5.47;;
77123;SDS011;66079;47.646;19.130;2023-06-22T03:24:00;13.87;;;6.37;;
77123;SDS011;66079;47.646;19.130;2023-06-22T03:27:03;16.10;;;5.77;;
77123;SDS011;66079;47.646;19.130;2023-06-22T03:30:09;12.43;;;5.85;;
77123;SDS011;66079;47.646;19.130;2023-06-22T03:33:13;10.57;;;6.00;;
77123;SDS011;66079;47.646;19.130;2023-06-22T03:36:16;11.40;;;5.47;;
77123;SDS011;66079;47.646;19.130;2023-06-22T03:39:21;9.90;;;5.57;;
77123;SDS011;66079;47.646;19.130;2023-06-22T03:42:24;10.97;;;5.43;;
77123;SDS011;66079;47.646;19.130;2023-06-22T03:45:26;13.27;;;5.18;;
77123;SDS011;66079;47.646;19.130;2023-06-22T03:48:29;9.88;;;5.22;;
77123;SDS011;66079;47.646;19.130;2023-06-22T03:51:32;13.52;;;5.85;;
77123;SDS011;66079;47.646;19.130;2023-06-22T03:54:35;11.37;;;5.50;;
77123;SDS011;66079;47.646;19.130;2023-06-22T03:57:38;11.20;;;5.20;;
77123;SDS011;66079;47.646;19.130;2023-06-22T04:00:41;13.50;;;5.57;;
77123;SDS011;66079;47.646;19.130;2023-06-22T04:03:43;11.68;;;5.68;;
77123;SDS011;66079;47.646;19.130;2023-06-22T04:06:46;14.82;;;6.13;;
77123;SDS011;66079;47.646;19.130;2023-06-22T04:09:49;8.97;;;6.00;;
77123;SDS011;66079;47.646;19.130;2023-06-22T04:12:51;14.27;;;6.10;;
77123;SDS011;66079;47.646;19.130;2023-06-22T04:15:54;9.70;;;5.72;;
77123;SDS011;66079;47.646;19.130;2023-06-22T04:18:56;10.88;;;6.15;;
77123;SDS011;66079;47.646;19.130;2023-06-22T04:21:59;9.13;;;5.38;;
77123;SDS011;66079;47.646;19.130;2023-06-22T04:25:01;10.37;;;5.73;;
77123;SDS011;66079;47.646;19.130;2023-06-22T04:28:04;14.63;;;5.90;;
77123;SDS011;66079;47.646;19.130;2023-06-22T04:31:06;8.45;;;5.35;;
77123;SDS011;66079;47.646;19.130;2023-06-22T04:34:09;14.38;;;5.50;;
77123;SDS011;66079;47.646;19.130;2023-06-22T04:37:12;12.82;;;6.30;;
77123;SDS011;66079;47.646;19.130;2023-06-22T04:40:17;14.20;;;5.57;;
77123;SDS011;66079;47.646;19.130;2023-06-22T04:43:21;10.93;;;5.20;;
77123;SDS011;66079;47.646;19.130;2023-06-22T04:46:23;14.57;;;5.63;;
77123;SDS011;66079;47.646;19.130;2023-06-22T04:49:26;14.82;;;5.30;;
77123;SDS011;66079;47.646;19.130;2023-06-22T04:52:38;9.18;;;4.78;;
77123;SDS011;66079;47.646;19.130;2023-06-22T04:55:40;10.40;;;5.10;;
77123;SDS011;66079;47.646;19.130;2023-06-22T04:58:43;14.27;;;6.00;;
77123;SDS011;66079;47.646;19.130;2023-06-22T05:01:46;11.55;;;4.95;;
77123;SDS011;66079;47.646;19.130;2023-06-22T05:04:48;10.65;;;5.80;;
77123;SDS011;66079;47.646;19.130;2023-06-22T05:07:55;9.85;;;5.53;;
77123;SDS011;66079;47.646;19.130;2023-06-22T05:11:01;9.73;;;5.30;;
77123;SDS011;66079;47.646;19.130;2023-06-22T05:14:07;12.03;;;5.07;;
77123;SDS011;66079;47.646;19.130;2023-06-22T05:17:10;9.75;;;5.30;;
77123;SDS011;66079;47.646;19.130;2023-06-22T05:20:17;10.43;;;5.50;;
77123;SDS011;66079;47.646;19.130;2023-06-22T05:23:20;11.10;;;5.57;;
77123;SDS011;66079;47.646;19.130;2023-06-22T05:26:23;14.90;;;5.63;;
77123;SDS011;66079;47.646;19.130;2023-06-22T05:29:26;10.80;;;5.67;;
77123;SDS011;66079;47.646;19.130;2023-06-22T05:32:29;10.93;;;5.13;;
77123;SDS011;66079;47.646;19.130;2023-06-22T05:35:31;11.18;;;5.38;;
77123;SDS011;66079;47.646;19.130;2023-06-22T05:38:34;11.30;;;5.68;;
77123;SDS011;66079;47.646;19.130;2023-06-22T05:41:37;13.03;;;5.97;;
77123;SDS011;66079;47.646;19.130;2023-06-22T05:44:39;11.67;;;5.53;;
77123;SDS011;66079;47.646;19.130;2023-06-22T05:47:42;9.45;;;4.80;;
77123;SDS011;66079;47.646;19.130;2023-06-22T05:50:45;10.88;;;4.63;;
77123;SDS011;66079;47.646;19.130;2023-06-22T05:53:48;8.85;;;4.47;;
77123;SDS011;66079;47.646;19.130;2023-06-22T05:56:52;7.63;;;4.17;;
77123;SDS011;66079;47.646;19.130;2023-06-22T05:59:54;10.30;;;4.10;;
77123;SDS011;66079;47.646;19.130;2023-06-22T06:02:57;9.90;;;3.90;;
77123;SDS011;66079;47.646;19.130;2023-06-22T06:06:05;10.65;;;4.07;;
77123;SDS011;66079;47.646;19.130;2023-06-22T06:09:08;9.05;;;4.63;;
77123;SDS011;66079;47.646;19.130;2023-06-22T06:12:11;7.33;;;3.90;;
77123;SDS011;66079;47.646;19.130;2023-06-22T06:15:14;9.67;;;3.97;;
77123;SDS011;66079;47.646;19.130;2023-06-22T06:18:16;10.07;;;3.95;;
77123;SDS011;66079;47.646;19.130;2023-06-22T06:21:19;8.43;;;3.83;;
77123;SDS011;66079;47.646;19.130;2023-06-22T06:24:22;9.95;;;3.90;;
77123;SDS011;66079;47.646;19.130;2023-06-22T06:27:25;9.53;;;4.23;;
77123;SDS011;66079;47.646;19.130;2023-06-22T06:30:31;9.67;;;4.33;;
77123;SDS011;66079;47.646;19.130;2023-06-22T06:33:35;14.00;;;4.60;;
77123;SDS011;66079;47.646;19.130;2023-06-22T06:36:38;11.18;;;4.15;;
77123;SDS011;66079;47.646;19.130;2023-06-22T06:39:41;8.85;;;4.18;;
77123;SDS011;66079;47.646;19.130;2023-06-22T06:42:46;9.20;;;4.30;;
77123;SDS011;66079;47.646;19.130;2023-06-22T06:45:51;9.40;;;3.30;;
77123;SDS011;66079;47.646;19.130;2023-06-22T06:48:53;12.55;;;3.45;;
77123;SDS011;66079;47.646;19.130;2023-06-22T06:51:56;5.75;;;2.72;;
77123;SDS011;66079;47.646;19.130;2023-06-22T06:54:59;5.97;;;2.67;;
77123;SDS011;66079;47.646;19.130;2023-06-22T06:58:04;8.50;;;2.50;;
77123;SDS011;66079;47.646;19.130;2023-06-22T07:01:09;5.67;;;2.53;;
77123;SDS011;66079;47.646;19.130;2023-06-22T07:04:12;7.88;;;3.00;;
77123;SDS011;66079;47.646;19.130;2023-06-22T07:07:15;6.93;;;3.13;;
77123;SDS011;66079;47.646;19.130;2023-06-22T07:10:17;6.40;;;2.50;;
77123;SDS011;66079;47.646;19.130;2023-06-22T07:13:20;8.37;;;3.00;;
77123;SDS011;66079;47.646;19.130;2023-06-22T07:16:24;8.67;;;3.40;;
77123;SDS011;66079;47.646;19.130;2023-06-22T07:19:28;6.38;;;3.15;;
77123;SDS011;66079;47.646;19.130;2023-06-22T07:22:31;8.73;;;2.85;;
77123;SDS011;66079;47.646;19.130;2023-06-22T07:25:33;7.90;;;3.25;;
77123;SDS011;66079;47.646;19.130;2023-06-22T07:28:36;7.17;;;3.33;;
77123;SDS011;66079;47.646;19.130;2023-06-22T07:31:40;6.23;;;2.67;;
77123;SDS011;66079;47.646;19.130;2023-06-22T07:34:43;6.18;;;2.85;;
77123;SDS011;66079;47.646;19.130;2023-06-22T07:37:46;7.50;;;3.20;;
77123;SDS011;66079;47.646;19.130;2023-06-22T07:40:49;7.70;;;3.40;;
77123;SDS011;66079;47.646;19.130;2023-06-22T07:43:53;11.57;;;3.40;;
77123;SDS011;66079;47.646;19.130;2023-06-22T07:46:56;8.53;;;3.60;;
77123;SDS011;66079;47.646;19.130;2023-06-22T07:49:58;8.23;;;3.63;;
77123;SDS011;66079;47.646;19.130;2023-06-22T07:53:03;9.93;;;3.42;;
77123;SDS011;66079;47.646;19.130;2023-06-22T07:56:06;10.05;;;3.70;;
77123;SDS011;66079;47.646;19.130;2023-06-22T07:59:10;11.93;;;3.53;;
77123;SDS011;66079;47.646;19.130;2023-06-22T08:02:13;5.73;;;2.93;;
77123;SDS011;66079;47.646;19.130;2023-06-22T08:05:16;8.70;;;3.67;;
77123;SDS011;66079;47.646;19.130;2023-06-22T08:08:35;10.57;;;3.65;;
77123;SDS011;66079;47.646;19.130;2023-06-22T08:11:38;11.93;;;3.55;;
77123;SDS011;66079;47.646;19.130;2023-06-22T08:14:41;6.27;;;2.87;;
77123;SDS011;66079;47.646;19.130;2023-06-22T08:17:46;7.43;;;3.10;;
77123;SDS011;66079;47.646;19.130;2023-06-22T08:20:50;7.22;;;3.05;;
77123;SDS011;66079;47.646;19.130;2023-06-22T08:23:52;8.50;;;3.20;;
77123;SDS011;66079;47.646;19.130;2023-06-22T08:26:55;7.43;;;3.13;;
77123;SDS011;66079;47.646;19.130;2023-06-22T08:29:59;13.63;;;3.50;;
77123;SDS011;66079;47.646;19.130;2023-06-22T08:33:02;6.17;;;3.10;;
77123;SDS011;66079;47.646;19.130;2023-06-22T08:36:05;6.30;;;2.90;;
77123;SDS011;66079;47.646;19.130;2023-06-22T08:39:08;9.35;;;3.00;;
77123;SDS011;66079;47.646;19.130;2023-06-22T08:42:11;13.18;;;3.33;;
77123;SDS011;66079;47.646;19.130;2023-06-22T08:45:14;8.67;;;3.00;;
77123;SDS011;66079;47.646;19.130;2023-06-22T08:48:17;12.37;;;3.53;;
77123;SDS011;66079;47.646;19.130;2023-06-22T08:51:19;8.23;;;3.22;;
77123;SDS011;66079;47.646;19.130;2023-06-22T08:54:22;9.23;;;3.35;;
77123;SDS011;66079;47.646;19.130;2023-06-22T08:57:26;11.30;;;3.40;;
77123;SDS011;66079;47.646;19.130;2023-06-22T09:00:33;13.20;;;4.03;;
77123;SDS011;66079;47.646;19.130;2023-06-22T09:03:37;10.00;;;3.97;;
77123;SDS011;66079;47.646;19.130;2023-06-22T09:06:40;5.13;;;3.20;;
77123;SDS011;66079;47.646;19.130;2023-06-22T09:09:47;9.93;;;3.45;;
77123;SDS011;66079;47.646;19.130;2023-06-22T09:12:49;10.20;;;3.80;;
77123;SDS011;66079;47.646;19.130;2023-06-22T09:15:52;10.30;;;3.73;;
77123;SDS011;66079;47.646;19.130;2023-06-22T09:18:54;10.20;;;4.20;;
77123;SDS011;66079;47.646;19.130;2023-06-22T09:21:57;12.32;;;3.58;;
77123;SDS011;66079;47.646;19.130;2023-06-22T09:25:00;13.10;;;3.90;;
77123;SDS011;66079;47.646;19.130;2023-06-22T09:28:03;11.50;;;4.00;;
77123;SDS011;66079;47.646;19.130;2023-06-22T09:31:06;9.53;;;3.87;;
77123;SDS011;66079;47.646;19.130;2023-06-22T09:34:09;10.80;;;3.90;;
77123;SDS011;66079;47.646;19.130;2023-06-22T09:37:11;6.78;;;3.95;;
77123;SDS011;66079;47.646;19.130;2023-06-22T09:40:14;10.02;;;4.07;;
77123;SDS011;66079;47.646;19.130;2023-06-22T09:43:19;13.18;;;4.43;;
77123;SDS011;66079;47.646;19.130;2023-06-22T09:46:22;21.77;;;5.20;;
77123;SDS011;66079;47.646;19.130;2023-06-22T09:49:27;8.13;;;4.23;;
77123;SDS011;66079;47.646;19.130;2023-06-22T09:52:48;11.75;;;5.25;;
77123;SDS011;66079;47.646;19.130;2023-06-22T09:55:52;8.43;;;4.85;;
77123;SDS011;66079;47.646;19.130;2023-06-22T09:58:55;8.40;;;4.80;;
77123;SDS011;66079;47.646;19.130;2023-06-22T10:02:14;8.17;;;4.73;;
77123;SDS011;66079;47.646;19.130;2023-06-22T10:05:18;8.13;;;4.60;;
77123;SDS011;66079;47.646;19.130;2023-06-22T10:08:20;11.70;;;4.82;;
77123;SDS011;66079;47.646;19.130;2023-06-22T10:11:23;7.90;;;4.63;;
77123;SDS011;66079;47.646;19.130;2023-06-22T10:14:31;9.32;;;4.97;;
77123;SDS011;66079;47.646;19.130;2023-06-22T10:17:34;8.67;;;4.70;;
77123;SDS011;66079;47.646;19.130;2023-06-22T10:20:36;10.03;;;4.37;;
77123;SDS011;66079;47.646;19.130;2023-06-22T10:23:39;9.75;;;5.45;;
77123;SDS011;66079;47.646;19.130;2023-06-22T10:26:42;7.22;;;5.00;;
77123;SDS011;66079;47.646;19.130;2023-06-22T10:29:45;8.90;;;4.80;;
77123;SDS011;66079;47.646;19.130;2023-06-22T10:32:48;8.83;;;4.63;;
77123;SDS011;66079;47.646;19.130;2023-06-22T10:35:50;8.77;;;4.63;;
77123;SDS011;66079;47.646;19.130;2023-06-22T10:38:53;9.15;;;4.95;;
77123;SDS011;66079;47.646;19.130;2023-06-22T10:41:57;11.07;;;4.95;;
77123;SDS011;66079;47.646;19.130;2023-06-22T10:45:00;7.95;;;5.18;;
77123;SDS011;66079;47.646;19.130;2023-06-22T10:48:04;8.47;;;4.87;;
77123;SDS011;66079;47.646;19.130;2023-06-22T10:51:07;8.90;;;5.03;;
77123;SDS011;66079;47.646;19.130;2023-06-22T10:54:09;8.02;;;5.20;;
77123;SDS011;66079;47.646;19.130;2023-06-22T10:57:12;10.05;;;5.22;;
77123;SDS011;66079;47.646;19.130;2023-06-22T11:00:16;9.25;;;4.57;;
77123;SDS011;66079;47.646;19.130;2023-06-22T11:03:18;8.60;;;5.40;;
77123;SDS011;66079;47.646;19.130;2023-06-22T11:06:21;8.73;;;4.87;;
77123;SDS011;66079;47.646;19.130;2023-06-22T11:09:24;9.15;;;4.63;;
77123;SDS011;66079;47.646;19.130;2023-06-22T11:12:30;8.82;;;4.90;;
77123;SDS011;66079;47.646;19.130;2023-06-22T11:15:33;10.15;;;5.13;;
77123;SDS011;66079;47.646;19.130;2023-06-22T11:18:36;9.83;;;5.33;;
77123;SDS011;66079;47.646;19.130;2023-06-22T11:21:38;11.37;;;5.10;;
77123;SDS011;66079;47.646;19.130;2023-06-22T11:24:41;8.20;;;5.18;;
77123;SDS011;66079;47.646;19.130;2023-06-22T11:27:43;9.98;;;4.90;;
77123;SDS011;66079;47.646;19.130;2023-06-22T11:30:46;9.45;;;5.07;;
77123;SDS011;66079;47.646;19.130;2023-06-22T11:33:50;10.63;;;5.33;;
77123;SDS011;66079;47.646;19.130;2023-06-22T11:36:53;16.63;;;5.57;;
77123;SDS011;66079;47.646;19.130;2023-06-22T11:39:55;11.93;;;5.88;;
77123;SDS011;66079;47.646;19.130;2023-06-22T11:43:08;15.18;;;5.88;;
77123;SDS011;66079;47.646;19.130;2023-06-22T11:46:10;10.60;;;5.60;;
77123;SDS011;66079;47.646;19.130;2023-06-22T11:49:13;12.03;;;5.50;;
77123;SDS011;66079;47.646;19.130;2023-06-22T11:52:15;11.17;;;4.83;;
77123;SDS011;66079;47.646;19.130;2023-06-22T11:55:21;12.52;;;5.28;;
77123;SDS011;66079;47.646;19.130;2023-06-22T11:58:23;10.73;;;5.30;;
77123;SDS011;66079;47.646;19.130;2023-06-22T12:01:26;9.25;;;4.55;;
77123;SDS011;66079;47.646;19.130;2023-06-22T12:04:28;10.57;;;5.40;;
77123;SDS011;66079;47.646;19.130;2023-06-22T12:07:31;11.57;;;5.73;;
77123;SDS011;66079;47.646;19.130;2023-06-22T12:10:34;7.18;;;4.80;;
77123;SDS011;66079;47.646;19.130;2023-06-22T12:13:36;8.48;;;4.78;;
77123;SDS011;66079;47.646;19.130;2023-06-22T12:16:39;10.32;;;5.47;;
77123;SDS011;66079;47.646;19.130;2023-06-22T12:19:41;11.20;;;5.97;;
77123;SDS011;66079;47.646;19.130;2023-06-22T12:22:44;8.20;;;5.30;;
77123;SDS011;66079;47.646;19.130;2023-06-22T12:25:47;10.43;;;4.80;;
77123;SDS011;66079;47.646;19.130;2023-06-22T12:28:49;8.30;;;5.60;;
77123;SDS011;66079;47.646;19.130;2023-06-22T12:31:52;9.20;;;5.10;;
77123;SDS011;66079;47.646;19.130;2023-06-22T12:34:55;15.90;;;5.10;;
77123;SDS011;66079;47.646;19.130;2023-06-22T12:37:58;10.23;;;4.80;;
77123;SDS011;66079;47.646;19.130;2023-06-22T12:41:01;9.52;;;5.47;;
77123;SDS011;66079;47.646;19.130;2023-06-22T12:44:03;9.63;;;5.15;;
77123;SDS011;66079;47.646;19.130;2023-06-22T12:47:06;20.95;;;5.50;;
77123;SDS011;66079;47.646;19.130;2023-06-22T12:50:09;15.10;;;5.50;;
77123;SDS011;66079;47.646;19.130;2023-06-22T12:53:11;11.80;;;6.93;;
77123;SDS011;66079;47.646;19.130;2023-06-22T12:56:15;14.23;;;6.22;;
77123;SDS011;66079;47.646;19.130;2023-06-22T12:59:18;8.35;;;5.18;;
77123;SDS011;66079;47.646;19.130;2023-06-22T13:02:20;11.20;;;5.82;;
77123;SDS011;66079;47.646;19.130;2023-06-22T13:05:23;8.70;;;6.23;;
77123;SDS011;66079;47.646;19.130;2023-06-22T13:08:26;12.03;;;6.90;;
77123;SDS011;66079;47.646;19.130;2023-06-22T13:11:48;10.48;;;6.70;;
77123;SDS011;66079;47.646;19.130;2023-06-22T13:14:51;40.08;;;8.13;;
77123;SDS011;66079;47.646;19.130;2023-06-22T13:17:53;9.68;;;6.43;;
77123;SDS011;66079;47.646;19.130;2023-06-22T13:20:56;9.37;;;6.77;;
77123;SDS011;66079;47.646;19.130;2023-06-22T13:24:00;18.73;;;7.00;;
77123;SDS011;66079;47.646;19.130;2023-06-22T13:27:03;13.45;;;6.93;;
77123;SDS011;66079;47.646;19.130;2023-06-22T13:30:06;11.40;;;6.30;;
77123;SDS011;66079;47.646;19.130;2023-06-22T13:33:12;16.95;;;7.28;;
77123;SDS011;66079;47.646;19.130;2023-06-22T13:36:15;16.87;;;6.70;;
77123;SDS011;66079;47.646;19.130;2023-06-22T13:39:19;9.43;;;6.17;;
77123;SDS011;66079;47.646;19.130;2023-06-22T13:42:21;10.50;;;6.45;;
77123;SDS011;66079;47.646;19.130;2023-06-22T13:45:24;13.75;;;6.60;;
77123;SDS011;66079;47.646;19.130;2023-06-22T13:48:27;9.82;;;6.60;;
77123;SDS011;66079;47.646;19.130;2023-06-22T13:51:30;9.90;;;6.50;;
77123;SDS011;66079;47.646;19.130;2023-06-22T13:54:33;9.43;;;6.20;;
77123;SDS011;66079;47.646;19.130;2023-06-22T13:57:37;19.88;;;6.72;;
77123;SDS011;66079;47.646;19.130;2023-06-22T14:00:39;10.15;;;6.60;;
77123;SDS011;66079;47.646;19.130;2023-06-22T14:03:42;13.38;;;6.43;;
77123;SDS011;66079;47.646;19.130;2023-06-22T14:06:47;11.70;;;6.90;;
77123;SDS011;66079;47.646;19.130;2023-06-22T14:09:50;8.57;;;6.23;;
77123;SDS011;66079;47.646;19.130;2023-06-22T14:12:53;8.73;;;6.15;;
77123;SDS011;66079;47.646;19.130;2023-06-22T14:15:57;11.45;;;6.60;;
77123;SDS011;66079;47.646;19.130;2023-06-22T14:19:00;11.88;;;6.40;;
77123;SDS011;66079;47.646;19.130;2023-06-22T14:22:02;8.70;;;6.07;;
77123;SDS011;66079;47.646;19.130;2023-06-22T14:25:05;9.47;;;6.53;;
77123;SDS011;66079;47.646;19.130;2023-06-22T14:28:08;11.55;;;6.57;;
77123;SDS011;66079;47.646;19.130;2023-06-22T14:31:11;10.50;;;6.55;;
77123;SDS011;66079;47.646;19.130;2023-06-22T14:34:14;16.15;;;6.72;;
77123;SDS011;66079;47.646;19.130;2023-06-22T14:37:17;10.37;;;6.57;;
77123;SDS011;66079;47.646;19.130;2023-06-22T14:40:19;15.17;;;6.90;;
77123;SDS011;66079;47.646;19.130;2023-06-22T14:43:23;18.95;;;7.40;;
77123;SDS011;66079;47.646;19.130;2023-06-22T14:46:27;11.95;;;6.72;;
77123;SDS011;66079;47.646;19.130;2023-06-22T14:49:30;14.75;;;6.85;;
77123;SDS011;66079;47.646;19.130;2023-06-22T14:52:32;10.80;;;6.70;;
77123;SDS011;66079;47.646;19.130;2023-06-22T14:55:35;9.37;;;6.70;;
77123;SDS011;66079;47.646;19.130;2023-06-22T14:58:39;11.85;;;6.97;;
77123;SDS011;66079;47.646;19.130;2023-06-22T15:01:42;12.10;;;6.88;;
77123;SDS011;66079;47.646;19.130;2023-06-22T15:04:48;15.88;;;6.90;;
77123;SDS011;66079;47.646;19.130;2023-06-22T15:07:51;11.53;;;6.40;;
77123;SDS011;66079;47.646;19.130;2023-06-22T15:10:54;39.90;;;8.20;;
77123;SDS011;66079;47.646;19.130;2023-06-22T15:14:00;14.32;;;6.63;;
77123;SDS011;66079;47.646;19.130;2023-06-22T15:17:02;22.65;;;6.97;;
77123;SDS011;66079;47.646;19.130;2023-06-22T15:20:05;10.23;;;6.57;;
77123;SDS011;66079;47.646;19.130;2023-06-22T15:23:10;11.23;;;6.20;;
77123;SDS011;66079;47.646;19.130;2023-06-22T15:26:14;10.73;;;6.47;;
77123;SDS011;66079;47.646;19.130;2023-06-22T15:29:17;25.05;;;7.13;;
77123;SDS011;66079;47.646;19.130;2023-06-22T15:32:19;10.38;;;6.30;;
77123;SDS011;66079;47.646;19.130;2023-06-22T15:35:22;9.52;;;5.75;;
77123;SDS011;66079;47.646;19.130;2023-06-22T15:38:25;7.80;;;6.10;;
77123;SDS011;66079;47.646;19.130;2023-06-22T15:41:27;12.50;;;6.80;;
77123;SDS011;66079;47.646;19.130;2023-06-22T15:44:30;11.95;;;7.10;;
77123;SDS011;66079;47.646;19.130;2023-06-22T15:47:33;12.27;;;6.97;;
77123;SDS011;66079;47.646;19.130;2023-06-22T15:50:35;10.30;;;6.82;;
77123;SDS011;66079;47.646;19.130;2023-06-22T15:53:39;9.20;;;6.80;;
77123;SDS011;66079;47.646;19.130;2023-06-22T15:56:42;10.00;;;6.07;;
77123;SDS011;66079;47.646;19.130;2023-06-22T15:59:45;8.93;;;5.72;;
77123;SDS011;66079;47.646;19.130;2023-06-22T16:02:47;13.32;;;6.20;;
77123;SDS011;66079;47.646;19.130;2023-06-22T16:05:51;10.90;;;5.97;;
77123;SDS011;66079;47.646;19.130;2023-06-22T16:08:53;14.50;;;6.33;;
77123;SDS011;66079;47.646;19.130;2023-06-22T16:11:56;9.43;;;5.67;;
77123;SDS011;66079;47.646;19.130;2023-06-22T16:14:59;8.93;;;5.68;;
77123;SDS011;66079;47.646;19.130;2023-06-22T16:18:02;8.32;;;5.75;;
77123;SDS011;66079;47.646;19.130;2023-06-22T16:21:05;8.93;;;5.85;;
77123;SDS011;66079;47.646;19.130;2023-06-22T16:24:07;11.97;;;6.23;;
77123;SDS011;66079;47.646;19.130;2023-06-22T16:27:10;13.60;;;5.87;;
77123;SDS011;66079;47.646;19.130;2023-06-22T16:30:12;9.13;;;5.55;;
77123;SDS011;66079;47.646;19.130;2023-06-22T16:33:15;8.60;;;5.70;;
77123;SDS011;66079;47.646;19.130;2023-06-22T16:36:18;8.93;;;5.55;;
77123;SDS011;66079;47.646;19.130;2023-06-22T16:39:20;10.23;;;5.90;;
77123;SDS011;66079;47.646;19.130;2023-06-22T16:42:23;14.50;;;5.77;;
77123;SDS011;66079;47.646;19.130;2023-06-22T16:45:25;11.52;;;5.80;;
77123;SDS011;66079;47.646;19.130;2023-06-22T16:48:28;20.80;;;6.60;;
77123;SDS011;66079;47.646;19.130;2023-06-22T16:51:31;10.00;;;5.65;;
77123;SDS011;66079;47.646;19.130;2023-06-22T16:54:33;12.23;;;5.23;;
77123;SDS011;66079;47.646;19.130;2023-06-22T16:57:43;8.87;;;5.40;;
77123;SDS011;66079;47.646;19.130;2023-06-22T17:00:45;8.90;;;5.15;;
77123;SDS011;66079;47.646;19.130;2023-06-22T17:03:52;9.75;;;5.20;;
77123;SDS011;66079;47.646;19.130;2023-06-22T17:07:13;10.57;;;4.85;;
77123;SDS011;66079;47.646;19.130;2023-06-22T17:10:20;11.17;;;5.27;;
77123;SDS011;66079;47.646;19.130;2023-06-22T17:13:24;9.57;;;4.80;;
77123;SDS011;66079;47.646;19.130;2023-06-22T17:16:27;10.10;;;4.78;;
77123;SDS011;66079;47.646;19.130;2023-06-22T17:19:33;9.90;;;4.88;;
77123;SDS011;66079;47.646;19.130;2023-06-22T17:22:36;11.13;;;5.10;;
77123;SDS011;66079;47.646;19.130;2023-06-22T17:25:39;10.20;;;5.10;;
77123;SDS011;66079;47.646;19.130;2023-06-22T17:28:48;9.13;;;4.90;;
77123;SDS011;66079;47.646;19.130;2023-06-22T17:31:55;12.15;;;5.22;;
77123;SDS011;66079;47.646;19.130;2023-06-22T17:34:58;10.85;;;5.13;;
77123;SDS011;66079;47.646;19.130;2023-06-22T17:38:00;9.48;;;5.18;;
77123;SDS011;66079;47.646;19.130;2023-06-22T17:41:03;11.40;;;5.80;;
77123;SDS011;66079;47.646;19.130;2023-06-22T17:44:08;9.63;;;5.70;;
77123;SDS011;66079;47.646;19.130;2023-06-22T17:47:11;8.88;;;5.15;;
77123;SDS011;66079;47.646;19.130;2023-06-22T17:50:13;11.05;;;5.60;;
77123;SDS011;66079;47.646;19.130;2023-06-22T17:53:16;8.75;;;5.53;;
77123;SDS011;66079;47.646;19.130;2023-06-22T17:56:19;13.17;;;5.93;;
77123;SDS011;66079;47.646;19.130;2023-06-22T17:59:21;9.90;;;5.60;;
77123;SDS011;66079;47.646;19.130;2023-06-22T18:02:24;11.13;;;5.10;;
77123;SDS011;66079;47.646;19.130;2023-06-22T18:05:32;9.02;;;5.57;;